Cape Lisburne LRRS Airport Cape Lisburne US
ICAO: PALU
IATA:
Category: Medium
Scheduled Services:

Elevation: 16 ft
TransAlt. 18000 ft.

Airport Communications:
ANCHORAGE CNTR:119.65
KOTZEBUE RDO:122.3
CTAF/UNICOM:126.2

PALU Zoom In..

If you have problems with the map follow the link
https://www.worldairports.se/pages/airport.php?
ICAO=PALU

Runways:

(A) RW 08 length 4805 ft width 135 ft
---- / hdg 84

(B) RW 26 length 4805 ft width 135 ft
---- / hdg 264

Location; PALU
Day. 27 / Time. 06.55 Zulu
* Altimeter: 30.42
* Temperature: -28° c. 18.4°f.
* Wind from: 220° Speed 01 kn.
Dewpoint: -30° c.
Visibility: 10 Statute Miles.
Clouds: Clear (automated report).

PALU 270655Z AUTO 22001KT 10SM CLR M28/M30 A3042 RMK AO2 SLP303 T12781304


Wind From 220°
Speed 01 kn.

 
 
jpsmedia worldairports.se 2020   terms of use